FIMR

Sir Charles Gaetan Duval Airport

Port Mathurin, Mauritius
METAR FIMR 190300Z 08006KT 9999 FEW009 FEW014TCU SCT016 BKN080 25/24 Q1010
Observed Flight Rules
Jan-19 @ 03:00 UTC (42 minutes ago) Visual Flight Rules
Wind Visibility Clouds
80° at 6 knots 10,000+ meters
  • Few at 900' AGL
  • Few at 1,400' AGL
  • Scattered at 1,600' AGL
  • Broken at 8,000' AGL
Temperatures Readings
Current 25°C / 77°F
Dewpoint 24°C / 75°F
Humidity 94%
Altimeter 29.82" Hg
Pressure 1010 hPa
Elevation 31
METAR FIMR 190300Z 08006KT 9999 FEW009 FEW014TCU SCT016 BKN080 25/24 Q1010
Observed Flight Rules
Jan-19 @ 03:00 UTC
(42 minutes ago)
VFR
Wind Visibility
80° at 6 knots 10,000+ meters
Clouds
  • Few at 900' AGL
  • Few at 1,400' AGL
  • Scattered at 1,600' AGL
  • Broken at 8,000' AGL
Temperature Dewpoint
25°C / 77°F 24°C / 75°F
Humidity Altimeter Pressure
94% 29.82" Hg 1010 hPa